sensor_id;sensor_type;location;lat;lon;timestamp;temperature;humidity
35027;DHT22;60696;51.426;6.934;2023-06-22T04:01:54;20.40;99.90
35027;DHT22;60696;51.426;6.934;2023-06-22T04:04:20;20.50;99.90
35027;DHT22;60696;51.426;6.934;2023-06-22T04:06:46;20.50;99.90
35027;DHT22;60696;51.426;6.934;2023-06-22T04:09:12;20.50;99.90
35027;DHT22;60696;51.426;6.934;2023-06-22T04:11:38;20.60;99.90
35027;DHT22;60696;51.426;6.934;2023-06-22T04:14:03;20.50;99.90
35027;DHT22;60696;51.426;6.934;2023-06-22T04:16:29;20.60;99.90
35027;DHT22;60696;51.426;6.934;2023-06-22T04:18:54;20.60;99.90
35027;DHT22;60696;51.426;6.934;2023-06-22T04:21:20;20.60;99.90
35027;DHT22;60696;51.426;6.934;2023-06-22T04:23:46;20.60;99.90
35027;DHT22;60696;51.426;6.934;2023-06-22T04:26:13;20.50;99.90
35027;DHT22;60696;51.426;6.934;2023-06-22T04:28:39;20.50;99.90
35027;DHT22;60696;51.426;6.934;2023-06-22T04:31:05;20.50;99.90
35027;DHT22;60696;51.426;6.934;2023-06-22T04:33:31;20.50;99.90
35027;DHT22;60696;51.426;6.934;2023-06-22T04:35:57;20.50;99.90
35027;DHT22;60696;51.426;6.934;2023-06-22T04:38:24;20.40;99.90
35027;DHT22;60696;51.426;6.934;2023-06-22T04:40:50;20.40;99.90
35027;DHT22;60696;51.426;6.934;2023-06-22T04:43:16;20.40;99.90
35027;DHT22;60696;51.426;6.934;2023-06-22T04:45:41;20.30;99.90
35027;DHT22;60696;51.426;6.934;2023-06-22T04:48:07;20.30;99.90
35027;DHT22;60696;51.426;6.934;2023-06-22T04:50:36;20.20;99.90
35027;DHT22;60696;51.426;6.934;2023-06-22T04:53:04;20.20;99.90
35027;DHT22;60696;51.426;6.934;2023-06-22T04:55:31;20.10;99.90
35027;DHT22;60696;51.426;6.934;2023-06-22T04:57:57;20.10;99.90
35027;DHT22;60696;51.426;6.934;2023-06-22T05:00:30;20.30;99.90
35027;DHT22;60696;51.426;6.934;2023-06-22T05:02:55;20.30;99.90
35027;DHT22;60696;51.426;6.934;2023-06-22T05:05:23;20.30;99.90
35027;DHT22;60696;51.426;6.934;2023-06-22T05:07:51;20.20;99.90
35027;DHT22;60696;51.426;6.934;2023-06-22T05:10:19;20.20;99.90
35027;DHT22;60696;51.426;6.934;2023-06-22T05:12:46;20.30;99.90
35027;DHT22;60696;51.426;6.934;2023-06-22T05:15:12;20.40;99.90
35027;DHT22;60696;51.426;6.934;2023-06-22T05:17:38;20.30;99.90
35027;DHT22;60696;51.426;6.934;2023-06-22T05:20:11;20.20;99.90
35027;DHT22;60696;51.426;6.934;2023-06-22T05:22:38;20.20;99.90
35027;DHT22;60696;51.426;6.934;2023-06-22T05:25:07;20.30;99.90
35027;DHT22;60696;51.426;6.934;2023-06-22T05:27:33;20.20;99.90
35027;DHT22;60696;51.426;6.934;2023-06-22T05:29:59;20.20;99.90
35027;DHT22;60696;51.426;6.934;2023-06-22T05:32:24;20.10;99.90
35027;DHT22;60696;51.426;6.934;2023-06-22T05:34:50;20.20;99.90
35027;DHT22;60696;51.426;6.934;2023-06-22T05:37:15;20.10;99.90
35027;DHT22;60696;51.426;6.934;2023-06-22T05:39:41;20.10;99.90
35027;DHT22;60696;51.426;6.934;2023-06-22T05:42:07;20.10;99.90
35027;DHT22;60696;51.426;6.934;2023-06-22T05:44:33;19.90;99.90
35027;DHT22;60696;51.426;6.934;2023-06-22T05:46:59;19.70;99.90
35027;DHT22;60696;51.426;6.934;2023-06-22T05:49:25;19.40;99.90
35027;DHT22;60696;51.426;6.934;2023-06-22T05:51:55;19.30;99.90
35027;DHT22;60696;51.426;6.934;2023-06-22T05:54:22;19.10;99.90
35027;DHT22;60696;51.426;6.934;2023-06-22T05:56:47;19.20;99.90
35027;DHT22;60696;51.426;6.934;2023-06-22T05:59:13;19.30;99.90
35027;DHT22;60696;51.426;6.934;2023-06-22T06:01:38;19.40;99.90
35027;DHT22;60696;51.426;6.934;2023-06-22T06:04:05;19.40;99.90
35027;DHT22;60696;51.426;6.934;2023-06-22T06:06:33;19.50;99.90
35027;DHT22;60696;51.426;6.934;2023-06-22T06:09:03;19.50;99.90
35027;DHT22;60696;51.426;6.934;2023-06-22T06:11:28;19.60;99.90
35027;DHT22;60696;51.426;6.934;2023-06-22T06:13:54;19.60;99.90
35027;DHT22;60696;51.426;6.934;2023-06-22T06:16:20;19.60;99.90
35027;DHT22;60696;51.426;6.934;2023-06-22T06:18:45;19.60;99.90
35027;DHT22;60696;51.426;6.934;2023-06-22T06:21:11;19.60;99.90
35027;DHT22;60696;51.426;6.934;2023-06-22T06:23:36;19.60;99.90
35027;DHT22;60696;51.426;6.934;2023-06-22T06:26:02;19.70;99.90
35027;DHT22;60696;51.426;6.934;2023-06-22T06:28:32;19.80;99.90
35027;DHT22;60696;51.426;6.934;2023-06-22T06:30:58;19.80;99.90
35027;DHT22;60696;51.426;6.934;2023-06-22T06:33:23;19.80;99.90
35027;DHT22;60696;51.426;6.934;2023-06-22T06:35:49;19.80;99.90
35027;DHT22;60696;51.426;6.934;2023-06-22T06:38:15;19.90;99.90
35027;DHT22;60696;51.426;6.934;2023-06-22T06:40:41;19.90;99.90
35027;DHT22;60696;51.426;6.934;2023-06-22T06:43:06;20.00;99.90
35027;DHT22;60696;51.426;6.934;2023-06-22T06:45:32;20.00;99.90
35027;DHT22;60696;51.426;6.934;2023-06-22T06:47:59;20.10;99.90
35027;DHT22;60696;51.426;6.934;2023-06-22T06:50:25;20.10;99.90
35027;DHT22;60696;51.426;6.934;2023-06-22T06:52:51;20.20;99.90
35027;DHT22;60696;51.426;6.934;2023-06-22T06:55:17;20.30;99.90
35027;DHT22;60696;51.426;6.934;2023-06-22T06:57:44;20.30;99.90
35027;DHT22;60696;51.426;6.934;2023-06-22T07:00:14;20.40;99.90
35027;DHT22;60696;51.426;6.934;2023-06-22T07:02:41;20.40;99.90
35027;DHT22;60696;51.426;6.934;2023-06-22T07:05:09;20.40;99.90
35027;DHT22;60696;51.426;6.934;2023-06-22T07:07:35;20.50;99.90
35027;DHT22;60696;51.426;6.934;2023-06-22T07:10:01;20.70;99.90
35027;DHT22;60696;51.426;6.934;2023-06-22T07:12:26;20.70;99.90
35027;DHT22;60696;51.426;6.934;2023-06-22T07:14:52;20.70;99.90
35027;DHT22;60696;51.426;6.934;2023-06-22T07:17:18;20.70;99.90
35027;DHT22;60696;51.426;6.934;2023-06-22T07:19:44;20.60;99.90
35027;DHT22;60696;51.426;6.934;2023-06-22T07:22:10;20.50;99.90
35027;DHT22;60696;51.426;6.934;2023-06-22T07:24:36;20.50;99.90
35027;DHT22;60696;51.426;6.934;2023-06-22T07:27:02;20.50;99.90
35027;DHT22;60696;51.426;6.934;2023-06-22T07:29:29;20.50;99.90
35027;DHT22;60696;51.426;6.934;2023-06-22T07:31:55;20.60;99.90
35027;DHT22;60696;51.426;6.934;2023-06-22T07:34:22;20.60;99.90
35027;DHT22;60696;51.426;6.934;2023-06-22T07:36:47;20.50;99.90
35027;DHT22;60696;51.426;6.934;2023-06-22T07:39:13;20.40;99.90
35027;DHT22;60696;51.426;6.934;2023-06-22T07:41:40;20.30;99.90
35027;DHT22;60696;51.426;6.934;2023-06-22T07:44:08;20.30;99.90
35027;DHT22;60696;51.426;6.934;2023-06-22T07:46:34;20.30;99.90
35027;DHT22;60696;51.426;6.934;2023-06-22T07:49:00;20.30;99.90
35027;DHT22;60696;51.426;6.934;2023-06-22T07:51:26;20.40;99.90
35027;DHT22;60696;51.426;6.934;2023-06-22T07:53:52;20.60;99.90
35027;DHT22;60696;51.426;6.934;2023-06-22T07:56:18;20.70;99.90
35027;DHT22;60696;51.426;6.934;2023-06-22T07:58:46;20.80;99.90
35027;DHT22;60696;51.426;6.934;2023-06-22T08:01:12;20.60;99.90
35027;DHT22;60696;51.426;6.934;2023-06-22T08:03:38;20.40;99.90
35027;DHT22;60696;51.426;6.934;2023-06-22T08:06:05;20.40;99.90
35027;DHT22;60696;51.426;6.934;2023-06-22T08:08:33;20.30;99.90
35027;DHT22;60696;51.426;6.934;2023-06-22T08:10:59;20.30;99.90
35027;DHT22;60696;51.426;6.934;2023-06-22T08:13:25;20.30;99.90
35027;DHT22;60696;51.426;6.934;2023-06-22T08:15:50;20.40;99.90
35027;DHT22;60696;51.426;6.934;2023-06-22T08:18:16;20.50;99.90
35027;DHT22;60696;51.426;6.934;2023-06-22T08:20:42;20.70;99.90
35027;DHT22;60696;51.426;6.934;2023-06-22T08:23:08;20.80;99.90
35027;DHT22;60696;51.426;6.934;2023-06-22T08:25:34;20.90;99.90
35027;DHT22;60696;51.426;6.934;2023-06-22T08:28:00;21.00;99.90
35027;DHT22;60696;51.426;6.934;2023-06-22T08:30:27;21.00;99.90
35027;DHT22;60696;51.426;6.934;2023-06-22T08:32:52;21.10;99.90
35027;DHT22;60696;51.426;6.934;2023-06-22T08:35:19;21.00;99.90
35027;DHT22;60696;51.426;6.934;2023-06-22T08:37:45;21.10;99.90
35027;DHT22;60696;51.426;6.934;2023-06-22T08:40:18;21.40;99.90
35027;DHT22;60696;51.426;6.934;2023-06-22T08:42:46;21.40;99.90
35027;DHT22;60696;51.426;6.934;2023-06-22T08:45:12;21.40;99.90
35027;DHT22;60696;51.426;6.934;2023-06-22T08:47:38;21.30;99.90
35027;DHT22;60696;51.426;6.934;2023-06-22T08:50:05;21.20;99.90
35027;DHT22;60696;51.426;6.934;2023-06-22T08:52:31;21.20;99.90
35027;DHT22;60696;51.426;6.934;2023-06-22T08:54:57;21.30;99.90
35027;DHT22;60696;51.426;6.934;2023-06-22T08:57:29;21.30;99.90
35027;DHT22;60696;51.426;6.934;2023-06-22T08:59:56;21.50;99.90
35027;DHT22;60696;51.426;6.934;2023-06-22T09:02:24;21.70;99.90
35027;DHT22;60696;51.426;6.934;2023-06-22T09:04:49;21.70;99.90
35027;DHT22;60696;51.426;6.934;2023-06-22T09:07:21;21.80;99.90
35027;DHT22;60696;51.426;6.934;2023-06-22T09:09:48;22.00;99.90
35027;DHT22;60696;51.426;6.934;2023-06-22T09:12:14;22.20;99.90
35027;DHT22;60696;51.426;6.934;2023-06-22T09:14:40;22.40;99.90
35027;DHT22;60696;51.426;6.934;2023-06-22T09:17:05;22.50;99.90
35027;DHT22;60696;51.426;6.934;2023-06-22T09:19:31;22.90;99.90
35027;DHT22;60696;51.426;6.934;2023-06-22T09:21:56;23.50;99.90
35027;DHT22;60696;51.426;6.934;2023-06-22T09:24:22;24.80;99.90
35027;DHT22;60696;51.426;6.934;2023-06-22T09:26:48;25.90;99.90
35027;DHT22;60696;51.426;6.934;2023-06-22T09:29:13;25.90;99.90
35027;DHT22;60696;51.426;6.934;2023-06-22T09:31:39;26.00;99.90
35027;DHT22;60696;51.426;6.934;2023-06-22T09:34:05;26.10;99.90
35027;DHT22;60696;51.426;6.934;2023-06-22T09:36:30;25.30;99.90
35027;DHT22;60696;51.426;6.934;2023-06-22T09:38:56;24.80;99.90
35027;DHT22;60696;51.426;6.934;2023-06-22T09:41:24;24.80;99.90
35027;DHT22;60696;51.426;6.934;2023-06-22T09:43:50;25.00;99.90
35027;DHT22;60696;51.426;6.934;2023-06-22T09:46:16;25.00;99.90
35027;DHT22;60696;51.426;6.934;2023-06-22T09:48:42;24.90;99.90
35027;DHT22;60696;51.426;6.934;2023-06-22T09:51:08;24.60;99.90
35027;DHT22;60696;51.426;6.934;2023-06-22T09:53:33;24.30;99.90
35027;DHT22;60696;51.426;6.934;2023-06-22T09:56:03;24.10;99.90
35027;DHT22;60696;51.426;6.934;2023-06-22T09:58:28;24.40;99.90
35027;DHT22;60696;51.426;6.934;2023-06-22T10:00:54;24.70;99.90
35027;DHT22;60696;51.426;6.934;2023-06-22T10:03:20;25.20;99.90
35027;DHT22;60696;51.426;6.934;2023-06-22T10:05:46;25.20;99.90
35027;DHT22;60696;51.426;6.934;2023-06-22T10:08:12;25.20;99.90
35027;DHT22;60696;51.426;6.934;2023-06-22T10:10:37;25.40;99.90
35027;DHT22;60696;51.426;6.934;2023-06-22T10:13:08;25.70;99.90
35027;DHT22;60696;51.426;6.934;2023-06-22T10:15:37;25.60;99.90
35027;DHT22;60696;51.426;6.934;2023-06-22T10:18:03;25.90;99.90
35027;DHT22;60696;51.426;6.934;2023-06-22T10:20:28;26.20;99.90
35027;DHT22;60696;51.426;6.934;2023-06-22T10:22:54;26.10;99.90
35027;DHT22;60696;51.426;6.934;2023-06-22T10:25:20;25.90;99.90
35027;DHT22;60696;51.426;6.934;2023-06-22T10:27:45;25.90;99.90
35027;DHT22;60696;51.426;6.934;2023-06-22T10:30:11;25.80;99.90
35027;DHT22;60696;51.426;6.934;2023-06-22T10:32:41;25.60;99.90
35027;DHT22;60696;51.426;6.934;2023-06-22T10:35:08;25.70;99.90
35027;DHT22;60696;51.426;6.934;2023-06-22T10:37:34;25.70;99.90
35027;DHT22;60696;51.426;6.934;2023-06-22T10:39:59;25.70;99.90
35027;DHT22;60696;51.426;6.934;2023-06-22T10:42:25;25.80;99.90
35027;DHT22;60696;51.426;6.934;2023-06-22T10:44:51;25.50;99.90
35027;DHT22;60696;51.426;6.934;2023-06-22T10:47:16;25.40;99.90
35027;DHT22;60696;51.426;6.934;2023-06-22T10:49:42;25.30;99.90
35027;DHT22;60696;51.426;6.934;2023-06-22T10:52:08;25.30;99.90
35027;DHT22;60696;51.426;6.934;2023-06-22T10:54:35;25.40;99.90
35027;DHT22;60696;51.426;6.934;2023-06-22T10:57:01;25.30;99.90
35027;DHT22;60696;51.426;6.934;2023-06-22T10:59:27;25.10;99.90
35027;DHT22;60696;51.426;6.934;2023-06-22T11:01:55;25.00;99.90
35027;DHT22;60696;51.426;6.934;2023-06-22T11:04:20;24.90;99.90
35027;DHT22;60696;51.426;6.934;2023-06-22T11:06:46;24.80;99.90
35027;DHT22;60696;51.426;6.934;2023-06-22T11:09:11;24.70;99.90
35027;DHT22;60696;51.426;6.934;2023-06-22T11:11:37;24.50;99.90
35027;DHT22;60696;51.426;6.934;2023-06-22T11:14:02;24.40;99.90
35027;DHT22;60696;51.426;6.934;2023-06-22T11:16:28;24.10;99.90
35027;DHT22;60696;51.426;6.934;2023-06-22T11:18:54;24.00;99.90
35027;DHT22;60696;51.426;6.934;2023-06-22T11:21:19;23.80;99.90
35027;DHT22;60696;51.426;6.934;2023-06-22T11:23:45;23.60;99.90
35027;DHT22;60696;51.426;6.934;2023-06-22T11:26:11;23.50;99.90
35027;DHT22;60696;51.426;6.934;2023-06-22T11:28:36;23.60;99.90
35027;DHT22;60696;51.426;6.934;2023-06-22T11:31:02;23.40;99.90
35027;DHT22;60696;51.426;6.934;2023-06-22T11:33:28;23.50;99.90
35027;DHT22;60696;51.426;6.934;2023-06-22T11:35:54;23.40;99.90
35027;DHT22;60696;51.426;6.934;2023-06-22T11:38:21;23.20;99.90
35027;DHT22;60696;51.426;6.934;2023-06-22T11:40:47;23.00;99.90
35027;DHT22;60696;51.426;6.934;2023-06-22T11:43:12;23.00;99.90
35027;DHT22;60696;51.426;6.934;2023-06-22T11:45:40;23.00;99.90
35027;DHT22;60696;51.426;6.934;2023-06-22T11:48:06;22.90;99.90
35027;DHT22;60696;51.426;6.934;2023-06-22T11:50:31;22.80;99.90
35027;DHT22;60696;51.426;6.934;2023-06-22T11:53:03;22.60;99.90
35027;DHT22;60696;51.426;6.934;2023-06-22T11:55:29;22.50;99.90
35027;DHT22;60696;51.426;6.934;2023-06-22T11:57:56;22.40;99.90
35027;DHT22;60696;51.426;6.934;2023-06-22T12:00:25;22.30;99.90
35027;DHT22;60696;51.426;6.934;2023-06-22T12:02:51;22.20;99.90
35027;DHT22;60696;51.426;6.934;2023-06-22T12:05:19;22.10;99.90
35027;DHT22;60696;51.426;6.934;2023-06-22T12:07:46;22.00;99.90
35027;DHT22;60696;51.426;6.934;2023-06-22T12:10:12;21.90;99.90
35027;DHT22;60696;51.426;6.934;2023-06-22T12:12:38;21.80;99.90
35027;DHT22;60696;51.426;6.934;2023-06-22T12:15:04;21.80;99.90
35027;DHT22;60696;51.426;6.934;2023-06-22T12:17:30;21.60;99.90
35027;DHT22;60696;51.426;6.934;2023-06-22T12:19:55;21.50;99.90
35027;DHT22;60696;51.426;6.934;2023-06-22T12:22:21;21.30;99.90
35027;DHT22;60696;51.426;6.934;2023-06-22T12:24:47;21.30;99.90
35027;DHT22;60696;51.426;6.934;2023-06-22T12:27:12;21.30;99.90
35027;DHT22;60696;51.426;6.934;2023-06-22T12:29:38;21.40;99.90
35027;DHT22;60696;51.426;6.934;2023-06-22T12:32:04;21.50;99.90
35027;DHT22;60696;51.426;6.934;2023-06-22T12:34:30;21.60;99.90
35027;DHT22;60696;51.426;6.934;2023-06-22T12:36:55;21.70;99.90
35027;DHT22;60696;51.426;6.934;2023-06-22T12:39:21;21.80;99.90
35027;DHT22;60696;51.426;6.934;2023-06-22T12:41:46;21.80;99.90
35027;DHT22;60696;51.426;6.934;2023-06-22T12:44:12;21.80;99.90
35027;DHT22;60696;51.426;6.934;2023-06-22T12:46:38;21.80;99.90
35027;DHT22;60696;51.426;6.934;2023-06-22T12:49:06;21.80;99.90
35027;DHT22;60696;51.426;6.934;2023-06-22T12:51:32;21.80;99.90
35027;DHT22;60696;51.426;6.934;2023-06-22T12:53:57;21.80;99.90
35027;DHT22;60696;51.426;6.934;2023-06-22T12:56:23;21.70;99.90
35027;DHT22;60696;51.426;6.934;2023-06-22T12:58:49;21.70;99.90
35027;DHT22;60696;51.426;6.934;2023-06-22T13:01:14;21.70;99.90
35027;DHT22;60696;51.426;6.934;2023-06-22T13:03:41;21.70;99.90
35027;DHT22;60696;51.426;6.934;2023-06-22T13:06:07;21.70;99.90
35027;DHT22;60696;51.426;6.934;2023-06-22T13:08:32;21.70;99.90
35027;DHT22;60696;51.426;6.934;2023-06-22T13:10:58;21.60;99.90
35027;DHT22;60696;51.426;6.934;2023-06-22T13:13:25;21.70;99.90
35027;DHT22;60696;51.426;6.934;2023-06-22T13:15:51;21.60;99.90
35027;DHT22;60696;51.426;6.934;2023-06-22T13:18:18;21.80;99.90
35027;DHT22;60696;51.426;6.934;2023-06-22T13:20:43;21.70;99.90
35027;DHT22;60696;51.426;6.934;2023-06-22T13:23:11;21.90;99.90
35027;DHT22;60696;51.426;6.934;2023-06-22T13:25:37;21.90;99.90
35027;DHT22;60696;51.426;6.934;2023-06-22T13:28:02;21.90;99.90
35027;DHT22;60696;51.426;6.934;2023-06-22T13:30:28;21.90;99.90
35027;DHT22;60696;51.426;6.934;2023-06-22T13:32:54;22.00;99.90
35027;DHT22;60696;51.426;6.934;2023-06-22T13:35:20;22.00;99.90
35027;DHT22;60696;51.426;6.934;2023-06-22T13:37:45;22.00;99.90
35027;DHT22;60696;51.426;6.934;2023-06-22T13:40:11;22.10;99.90
35027;DHT22;60696;51.426;6.934;2023-06-22T13:42:37;22.10;99.90
35027;DHT22;60696;51.426;6.934;2023-06-22T13:45:03;22.30;99.90
35027;DHT22;60696;51.426;6.934;2023-06-22T13:47:29;22.40;99.90
35027;DHT22;60696;51.426;6.934;2023-06-22T13:49:55;22.50;99.90
35027;DHT22;60696;51.426;6.934;2023-06-22T13:52:23;22.70;99.90
35027;DHT22;60696;51.426;6.934;2023-06-22T13:54:48;22.70;99.90
35027;DHT22;60696;51.426;6.934;2023-06-22T13:57:14;22.80;99.90
35027;DHT22;60696;51.426;6.934;2023-06-22T13:59:40;22.80;99.90
35027;DHT22;60696;51.426;6.934;2023-06-22T14:02:06;22.90;99.90
35027;DHT22;60696;51.426;6.934;2023-06-22T14:04:31;22.90;99.90
35027;DHT22;60696;51.426;6.934;2023-06-22T14:06:57;22.70;99.90
35027;DHT22;60696;51.426;6.934;2023-06-22T14:09:23;22.60;99.90
35027;DHT22;60696;51.426;6.934;2023-06-22T14:11:48;22.50;99.90
35027;DHT22;60696;51.426;6.934;2023-06-22T14:14:14;22.50;99.90
35027;DHT22;60696;51.426;6.934;2023-06-22T14:16:39;22.50;99.90
35027;DHT22;60696;51.426;6.934;2023-06-22T14:19:05;22.50;99.90
35027;DHT22;60696;51.426;6.934;2023-06-22T14:21:31;22.50;99.90
35027;DHT22;60696;51.426;6.934;2023-06-22T14:23:56;22.40;99.90
35027;DHT22;60696;51.426;6.934;2023-06-22T14:26:22;22.40;99.90
35027;DHT22;60696;51.426;6.934;2023-06-22T14:28:48;22.50;99.90
35027;DHT22;60696;51.426;6.934;2023-06-22T14:31:16;22.50;99.90
35027;DHT22;60696;51.426;6.934;2023-06-22T14:33:49;22.60;99.90
35027;DHT22;60696;51.426;6.934;2023-06-22T14:36:16;22.60;99.90
35027;DHT22;60696;51.426;6.934;2023-06-22T14:38:42;22.50;99.90
35027;DHT22;60696;51.426;6.934;2023-06-22T14:41:08;22.40;99.90
35027;DHT22;60696;51.426;6.934;2023-06-22T14:43:33;22.40;99.90
35027;DHT22;60696;51.426;6.934;2023-06-22T14:46:00;22.40;99.90
35027;DHT22;60696;51.426;6.934;2023-06-22T14:48:26;22.50;99.90
35027;DHT22;60696;51.426;6.934;2023-06-22T14:50:52;22.60;99.90
35027;DHT22;60696;51.426;6.934;2023-06-22T14:53:19;22.50;99.90
35027;DHT22;60696;51.426;6.934;2023-06-22T14:55:45;22.50;99.90
35027;DHT22;60696;51.426;6.934;2023-06-22T14:58:10;22.50;99.90
35027;DHT22;60696;51.426;6.934;2023-06-22T15:00:37;22.50;99.90
35027;DHT22;60696;51.426;6.934;2023-06-22T15:03:04;22.40;99.90
35027;DHT22;60696;51.426;6.934;2023-06-22T15:05:32;22.30;99.90
35027;DHT22;60696;51.426;6.934;2023-06-22T15:07:57;22.10;99.90
35027;DHT22;60696;51.426;6.934;2023-06-22T15:10:24;22.10;99.90
35027;DHT22;60696;51.426;6.934;2023-06-22T15:12:50;22.20;99.90
35027;DHT22;60696;51.426;6.934;2023-06-22T15:15:15;22.20;99.90
35027;DHT22;60696;51.426;6.934;2023-06-22T15:17:41;22.10;99.90
35027;DHT22;60696;51.426;6.934;2023-06-22T15:20:07;22.20;99.90
35027;DHT22;60696;51.426;6.934;2023-06-22T15:22:32;22.10;99.90
35027;DHT22;60696;51.426;6.934;2023-06-22T15:24:58;22.00;99.90
35027;DHT22;60696;51.426;6.934;2023-06-22T15:27:24;22.00;99.90
35027;DHT22;60696;51.426;6.934;2023-06-22T15:29:50;22.00;99.90
35027;DHT22;60696;51.426;6.934;2023-06-22T15:32:15;22.00;99.90
35027;DHT22;60696;51.426;6.934;2023-06-22T15:34:41;22.10;99.90
35027;DHT22;60696;51.426;6.934;2023-06-22T15:37:06;22.00;99.90
35027;DHT22;60696;51.426;6.934;2023-06-22T15:39:32;22.00;99.90
35027;DHT22;60696;51.426;6.934;2023-06-22T15:41:58;22.00;99.90
35027;DHT22;60696;51.426;6.934;2023-06-22T15:44:23;21.90;99.90
35027;DHT22;60696;51.426;6.934;2023-06-22T15:46:50;21.80;99.90
35027;DHT22;60696;51.426;6.934;2023-06-22T15:49:16;21.70;99.90
35027;DHT22;60696;51.426;6.934;2023-06-22T15:51:41;21.60;99.90
35027;DHT22;60696;51.426;6.934;2023-06-22T15:54:07;21.40;99.90
35027;DHT22;60696;51.426;6.934;2023-06-22T15:56:33;21.40;99.90
35027;DHT22;60696;51.426;6.934;2023-06-22T15:58:58;21.40;99.90
35027;DHT22;60696;51.426;6.934;2023-06-22T16:01:24;21.40;99.90
35027;DHT22;60696;51.426;6.934;2023-06-22T16:03:50;21.40;99.90
35027;DHT22;60696;51.426;6.934;2023-06-22T16:06:16;21.10;99.90
35027;DHT22;60696;51.426;6.934;2023-06-22T16:08:41;20.90;99.90
35027;DHT22;60696;51.426;6.934;2023-06-22T16:11:07;20.80;99.90
35027;DHT22;60696;51.426;6.934;2023-06-22T16:13:33;20.50;99.90
35027;DHT22;60696;51.426;6.934;2023-06-22T16:15:59;20.40;99.90
35027;DHT22;60696;51.426;6.934;2023-06-22T16:18:24;20.30;99.90
35027;DHT22;60696;51.426;6.934;2023-06-22T16:20:50;20.30;99.90
35027;DHT22;60696;51.426;6.934;2023-06-22T16:23:15;20.30;99.90
35027;DHT22;60696;51.426;6.934;2023-06-22T16:25:42;20.30;99.90
35027;DHT22;60696;51.426;6.934;2023-06-22T16:28:08;20.30;99.90
35027;DHT22;60696;51.426;6.934;2023-06-22T16:33:02;20.00;99.90
35027;DHT22;60696;51.426;6.934;2023-06-22T16:35:28;19.90;99.90
35027;DHT22;60696;51.426;6.934;2023-06-22T16:37:55;19.80;99.90
35027;DHT22;60696;51.426;6.934;2023-06-22T16:40:23;19.80;99.90
35027;DHT22;60696;51.426;6.934;2023-06-22T16:42:50;19.70;99.90
35027;DHT22;60696;51.426;6.934;2023-06-22T16:45:17;19.70;99.90
35027;DHT22;60696;51.426;6.934;2023-06-22T16:47:45;19.80;99.90
35027;DHT22;60696;51.426;6.934;2023-06-22T16:50:11;19.70;99.90
35027;DHT22;60696;51.426;6.934;2023-06-22T16:52:37;19.70;99.90
35027;DHT22;60696;51.426;6.934;2023-06-22T16:55:09;19.60;99.90
35027;DHT22;60696;51.426;6.934;2023-06-22T16:57:35;19.60;99.90
35027;DHT22;60696;51.426;6.934;2023-06-22T17:00:01;19.50;99.90
35027;DHT22;60696;51.426;6.934;2023-06-22T17:02:28;19.50;99.90
35027;DHT22;60696;51.426;6.934;2023-06-22T17:04:57;19.40;99.90
35027;DHT22;60696;51.426;6.934;2023-06-22T17:07:26;19.40;99.90
35027;DHT22;60696;51.426;6.934;2023-06-22T17:09:53;19.40;99.90
35027;DHT22;60696;51.426;6.934;2023-06-22T17:12:20;19.40;99.90
35027;DHT22;60696;51.426;6.934;2023-06-22T17:14:48;19.30;99.90
35027;DHT22;60696;51.426;6.934;2023-06-22T17:17:17;19.30;99.90
35027;DHT22;60696;51.426;6.934;2023-06-22T17:19:43;19.30;99.90
35027;DHT22;60696;51.426;6.934;2023-06-22T17:22:10;19.20;99.90
35027;DHT22;60696;51.426;6.934;2023-06-22T17:24:36;19.20;99.90
35027;DHT22;60696;51.426;6.934;2023-06-22T17:27:02;19.20;99.90
35027;DHT22;60696;51.426;6.934;2023-06-22T17:29:29;19.20;99.90
35027;DHT22;60696;51.426;6.934;2023-06-22T17:31:58;19.10;99.90
35027;DHT22;60696;51.426;6.934;2023-06-22T17:34:27;19.10;99.90
35027;DHT22;60696;51.426;6.934;2023-06-22T17:36:56;19.00;99.90
35027;DHT22;60696;51.426;6.934;2023-06-22T17:39:24;19.00;99.90
35027;DHT22;60696;51.426;6.934;2023-06-22T17:41:51;19.00;99.90
35027;DHT22;60696;51.426;6.934;2023-06-22T17:44:27;19.00;99.90
35027;DHT22;60696;51.426;6.934;2023-06-22T17:46:58;19.00;99.90
35027;DHT22;60696;51.426;6.934;2023-06-22T17:49:32;19.10;99.90
35027;DHT22;60696;51.426;6.934;2023-06-22T17:52:00;19.00;99.90
35027;DHT22;60696;51.426;6.934;2023-06-22T17:54:30;19.00;99.90
35027;DHT22;60696;51.426;6.934;2023-06-22T17:56:56;19.10;99.90
35027;DHT22;60696;51.426;6.934;2023-06-22T17:59:22;19.10;99.90
35027;DHT22;60696;51.426;6.934;2023-06-22T18:01:47;19.10;99.90
35027;DHT22;60696;51.426;6.934;2023-06-22T18:04:15;19.10;99.90
35027;DHT22;60696;51.426;6.934;2023-06-22T18:06:43;19.20;99.90
35027;DHT22;60696;51.426;6.934;2023-06-22T18:09:11;19.30;99.90
35027;DHT22;60696;51.426;6.934;2023-06-22T18:11:58;19.40;99.90
35027;DHT22;60696;51.426;6.934;2023-06-22T18:14:24;19.30;99.90
35027;DHT22;60696;51.426;6.934;2023-06-22T18:16:51;19.40;99.90
35027;DHT22;60696;51.426;6.934;2023-06-22T18:19:18;19.30;99.90
35027;DHT22;60696;51.426;6.934;2023-06-22T18:21:50;19.30;99.90
35027;DHT22;60696;51.426;6.934;2023-06-22T18:24:16;19.30;99.90
35027;DHT22;60696;51.426;6.934;2023-06-22T18:26:43;19.40;99.90
35027;DHT22;60696;51.426;6.934;2023-06-22T18:29:09;19.30;99.90
35027;DHT22;60696;51.426;6.934;2023-06-22T18:31:35;19.30;99.90
35027;DHT22;60696;51.426;6.934;2023-06-22T18:34:01;19.30;99.90
35027;DHT22;60696;51.426;6.934;2023-06-22T18:36:42;19.20;99.90
35027;DHT22;60696;51.426;6.934;2023-06-22T18:39:10;19.20;99.90
35027;DHT22;60696;51.426;6.934;2023-06-22T18:41:39;19.20;99.90
35027;DHT22;60696;51.426;6.934;2023-06-22T18:44:24;19.30;99.90
35027;DHT22;60696;51.426;6.934;2023-06-22T18:46:51;19.40;99.90
35027;DHT22;60696;51.426;6.934;2023-06-22T18:49:22;19.40;99.90
35027;DHT22;60696;51.426;6.934;2023-06-22T18:51:56;19.50;99.90
35027;DHT22;60696;51.426;6.934;2023-06-22T18:54:40;19.40;99.90
35027;DHT22;60696;51.426;6.934;2023-06-22T18:57:24;19.50;99.90
35027;DHT22;60696;51.426;6.934;2023-06-22T19:05:08;19.50;99.90
35027;DHT22;60696;51.426;6.934;2023-06-22T19:13:25;19.40;99.90
35027;DHT22;60696;51.426;6.934;2023-06-22T19:16:06;19.40;99.90
35027;DHT22;60696;51.426;6.934;2023-06-22T19:18:39;19.40;99.90
35027;DHT22;60696;51.426;6.934;2023-06-22T19:21:26;19.50;99.90
35027;DHT22;60696;51.426;6.934;2023-06-22T19:23:51;19.50;99.90
35027;DHT22;60696;51.426;6.934;2023-06-22T19:26:18;19.50;99.90
35027;DHT22;60696;51.426;6.934;2023-06-22T19:28:46;19.30;99.90
35027;DHT22;60696;51.426;6.934;2023-06-22T19:31:13;19.30;99.90
35027;DHT22;60696;51.426;6.934;2023-06-22T19:33:39;19.20;99.90
35027;DHT22;60696;51.426;6.934;2023-06-22T19:36:05;19.30;99.90
35027;DHT22;60696;51.426;6.934;2023-06-22T19:38:30;19.00;99.90
35027;DHT22;60696;51.426;6.934;2023-06-22T19:40:59;18.90;99.90